createdAt,value
2023-02-22T00:00:43.984Z,13.88
2023-02-22T00:03:15.273Z,14.40
2023-02-22T00:05:46.960Z,15.80
2023-02-22T00:08:15.923Z,14.20
2023-02-22T00:10:43.648Z,14.32
2023-02-22T00:13:14.747Z,15.35
2023-02-22T00:15:42.428Z,15.80
2023-02-22T00:18:12.819Z,15.98
2023-02-22T00:20:41.562Z,16.38
2023-02-22T00:23:14.055Z,16.15
2023-02-22T00:25:41.675Z,13.98
2023-02-22T00:28:09.226Z,13.75
2023-02-22T00:30:38.151Z,17.42
2023-02-22T00:33:07.640Z,16.88
2023-02-22T00:35:35.426Z,16.15
2023-02-22T00:38:04.512Z,17.88
2023-02-22T00:40:33.676Z,17.35
2023-02-22T00:43:03.120Z,17.92
2023-02-22T00:45:32.273Z,17.13
2023-02-22T00:48:02.088Z,15.93
2023-02-22T00:50:31.479Z,17.45
2023-02-22T00:53:01.618Z,17.27
2023-02-22T00:55:32.073Z,18.55
2023-02-22T00:58:01.977Z,16.80
2023-02-22T01:00:32.048Z,17.92
2023-02-22T01:03:01.051Z,19.77
2023-02-22T01:05:31.827Z,16.48
2023-02-22T01:08:01.137Z,17.33
2023-02-22T01:10:30.595Z,16.33
2023-02-22T01:13:00.188Z,16.70
2023-02-22T01:15:30.708Z,17.13
2023-02-22T01:18:01.056Z,16.80
2023-02-22T01:20:29.999Z,16.08
2023-02-22T01:22:59.212Z,15.93
2023-02-22T01:25:28.592Z,15.45
2023-02-22T01:27:58.351Z,16.75
2023-02-22T01:30:27.888Z,16.45
2023-02-22T01:32:55.714Z,16.73
2023-02-22T01:35:28.553Z,17.90
2023-02-22T01:37:57.286Z,17.05
2023-02-22T01:40:27.474Z,18.27
2023-02-22T01:42:59.130Z,17.88
2023-02-22T01:45:58.901Z,15.52
2023-02-22T01:48:31.777Z,16.63
2023-02-22T01:51:10.507Z,17.10
2023-02-22T01:53:42.228Z,17.83
2023-02-22T01:56:10.821Z,18.20
2023-02-22T01:58:41.348Z,18.90
2023-02-22T02:01:10.307Z,18.83
2023-02-22T02:03:41.399Z,18.17
2023-02-22T02:06:14.451Z,17.63
2023-02-22T02:08:51.672Z,20.05
2023-02-22T02:11:22.779Z,18.10
2023-02-22T02:13:52.419Z,17.27
2023-02-22T02:16:21.979Z,17.55
2023-02-22T02:18:49.985Z,18.58
2023-02-22T02:21:41.507Z,17.90
2023-02-22T02:24:41.322Z,17.65
2023-02-22T02:27:19.727Z,17.42
2023-02-22T02:30:26.330Z,16.30
2023-02-22T02:32:58.744Z,17.45
2023-02-22T02:35:38.981Z,17.42
2023-02-22T02:38:15.203Z,18.85
2023-02-22T02:40:49.223Z,17.92
2023-02-22T02:43:28.843Z,16.60
2023-02-22T02:46:03.263Z,16.50
2023-02-22T02:48:34.829Z,16.05
2023-02-22T02:51:07.707Z,17.85
2023-02-22T02:53:38.022Z,17.75
2023-02-22T02:56:06.106Z,17.63
2023-02-22T02:58:33.697Z,18.90
2023-02-22T03:01:04.332Z,18.35
2023-02-22T03:04:06.662Z,18.88
2023-02-22T03:06:54.825Z,17.70
2023-02-22T03:09:34.450Z,17.23
2023-02-22T03:12:14.646Z,16.52
2023-02-22T03:14:50.603Z,15.80
2023-02-22T03:17:26.238Z,17.30
2023-02-22T03:20:01.747Z,16.65
2023-02-22T03:22:38.365Z,17.27
2023-02-22T03:25:09.109Z,16.70
2023-02-22T03:27:43.432Z,17.80
2023-02-22T03:30:19.538Z,18.40
2023-02-22T03:32:50.866Z,17.85
2023-02-22T03:35:23.988Z,17.70
2023-02-22T03:37:58.645Z,18.02
2023-02-22T03:40:30.558Z,17.88
2023-02-22T03:43:03.249Z,17.67
2023-02-22T03:45:32.669Z,16.83
2023-02-22T03:48:07.880Z,15.35
2023-02-22T03:50:38.305Z,16.65
2023-02-22T03:53:08.287Z,15.60
2023-02-22T03:55:39.292Z,16.48
2023-02-22T03:58:11.654Z,15.85
2023-02-22T04:00:44.385Z,17.65
2023-02-22T04:03:12.574Z,18.35
2023-02-22T04:05:42.204Z,16.85
2023-02-22T04:08:10.053Z,18.50
2023-02-22T04:10:38.379Z,17.85
2023-02-22T04:13:06.968Z,18.20
2023-02-22T04:15:36.421Z,17.40
2023-02-22T04:18:06.697Z,19.02
2023-02-22T04:20:34.908Z,17.88
2023-02-22T04:23:12.670Z,17.67
2023-02-22T04:25:42.188Z,19.50
2023-02-22T04:28:13.464Z,18.42
2023-02-22T04:30:49.989Z,18.33
2023-02-22T04:33:19.376Z,17.23
2023-02-22T04:35:47.321Z,16.40
2023-02-22T04:38:16.621Z,16.65
2023-02-22T04:40:44.209Z,16.08
2023-02-22T04:43:11.952Z,15.65
2023-02-22T04:45:40.953Z,15.90
2023-02-22T04:48:09.331Z,15.25
2023-02-22T04:50:37.081Z,15.23
2023-02-22T04:53:04.880Z,15.60
2023-02-22T04:55:34.131Z,15.35
2023-02-22T04:58:02.665Z,14.65
2023-02-22T05:00:30.222Z,14.43
2023-02-22T05:03:01.617Z,14.13
2023-02-22T05:05:29.463Z,14.23
2023-02-22T05:07:57.251Z,14.85
2023-02-22T05:10:25.661Z,14.50
2023-02-22T05:12:54.649Z,13.50
2023-02-22T05:15:25.171Z,13.35
2023-02-22T05:17:52.756Z,13.65
2023-02-22T05:20:24.654Z,14.57
2023-02-22T05:22:52.378Z,14.75
2023-02-22T05:25:21.357Z,13.90
2023-02-22T05:27:52.808Z,16.17
2023-02-22T05:30:24.510Z,14.55
2023-02-22T05:32:52.159Z,16.50
2023-02-22T05:35:20.885Z,15.82
2023-02-22T05:37:48.543Z,15.10
2023-02-22T05:40:18.588Z,16.25
2023-02-22T05:42:48.881Z,16.10
2023-02-22T05:45:18.539Z,16.35
2023-02-22T05:47:48.185Z,16.02
2023-02-22T05:50:18.253Z,15.95
2023-02-22T05:52:46.511Z,16.83
2023-02-22T05:55:15.903Z,15.88
2023-02-22T05:57:43.616Z,16.17
2023-02-22T06:00:16.326Z,15.52
2023-02-22T06:02:43.961Z,17.85
2023-02-22T06:05:13.904Z,17.30
2023-02-22T06:07:41.522Z,16.10
2023-02-22T06:10:09.304Z,15.93
2023-02-22T06:12:36.846Z,16.50
2023-02-22T06:15:04.782Z,16.10
2023-02-22T06:17:32.340Z,16.33
2023-02-22T06:20:00.141Z,15.05
2023-02-22T06:22:29.412Z,17.42
2023-02-22T06:24:57.002Z,16.13
2023-02-22T06:27:24.650Z,15.60
2023-02-22T06:29:52.230Z,17.08
2023-02-22T06:32:19.916Z,16.33
2023-02-22T06:34:48.532Z,16.40
2023-02-22T06:37:16.301Z,17.15
2023-02-22T06:39:45.231Z,17.67
2023-02-22T06:42:12.876Z,16.92
2023-02-22T06:44:40.510Z,16.95
2023-02-22T06:47:08.074Z,17.33
2023-02-22T06:49:35.663Z,18.48
2023-02-22T06:52:05.625Z,18.90
2023-02-22T06:54:33.578Z,18.38
2023-02-22T06:57:02.615Z,19.02
2023-02-22T06:59:30.130Z,19.95
2023-02-22T07:01:57.642Z,20.63
2023-02-22T07:04:25.174Z,19.95
2023-02-22T07:06:52.705Z,20.55
2023-02-22T07:09:20.283Z,21.00
2023-02-22T07:11:47.859Z,20.17
2023-02-22T07:14:18.684Z,21.08
2023-02-22T07:16:46.226Z,21.45
2023-02-22T07:19:13.823Z,19.23
2023-02-22T07:21:41.351Z,18.35
2023-02-22T07:24:09.112Z,19.63
2023-02-22T07:26:40.355Z,18.27
2023-02-22T07:29:08.076Z,18.38
2023-02-22T07:31:38.204Z,18.42
2023-02-22T07:34:05.792Z,19.88
2023-02-22T07:36:33.377Z,19.00
2023-02-22T07:39:00.967Z,19.08
2023-02-22T07:41:28.593Z,18.80
2023-02-22T07:43:56.154Z,21.08
2023-02-22T07:46:23.714Z,21.52
2023-02-22T07:48:52.631Z,19.95
2023-02-22T07:51:20.745Z,18.30
2023-02-22T07:53:49.366Z,20.20
2023-02-22T07:56:18.168Z,18.15
2023-02-22T07:58:46.748Z,20.13
2023-02-22T08:01:14.305Z,19.00
2023-02-22T08:03:42.499Z,18.35
2023-02-22T08:06:11.346Z,18.55
2023-02-22T08:08:38.918Z,18.92
2023-02-22T08:11:06.647Z,18.60
2023-02-22T08:13:34.419Z,18.45
2023-02-22T08:16:02.012Z,16.88
2023-02-22T08:18:29.654Z,17.67
2023-02-22T08:20:57.436Z,16.85
2023-02-22T08:23:27.330Z,18.10
2023-02-22T08:25:55.268Z,18.42
2023-02-22T08:28:25.312Z,15.63
2023-02-22T08:30:53.266Z,17.30
2023-02-22T08:33:21.215Z,18.42
2023-02-22T08:35:50.364Z,16.38
2023-02-22T08:38:20.791Z,17.65
2023-02-22T08:40:50.457Z,18.40
2023-02-22T08:43:18.576Z,15.20
2023-02-22T08:45:46.736Z,16.38
2023-02-22T08:48:15.110Z,16.45
2023-02-22T08:50:44.200Z,17.00
2023-02-22T08:53:14.132Z,17.27
2023-02-22T08:55:42.749Z,15.18
2023-02-22T08:58:13.479Z,18.23
2023-02-22T09:00:44.526Z,16.40
2023-02-22T09:03:17.352Z,17.10
2023-02-22T09:05:45.704Z,15.52
2023-02-22T09:08:13.601Z,15.68
2023-02-22T09:10:41.674Z,15.20
2023-02-22T09:13:09.593Z,16.63
2023-02-22T09:15:39.846Z,15.52
2023-02-22T09:18:09.148Z,15.13
2023-02-22T09:20:37.156Z,14.40
2023-02-22T09:23:06.133Z,15.43
2023-02-22T09:25:34.501Z,15.38
2023-02-22T09:28:02.872Z,15.48
2023-02-22T09:30:32.906Z,14.88
2023-02-22T09:33:06.522Z,14.20
2023-02-22T09:35:36.043Z,14.20
2023-02-22T09:38:06.142Z,15.35
2023-02-22T09:40:40.987Z,14.13
2023-02-22T09:43:26.657Z,14.45
2023-02-22T09:46:11.936Z,15.15
2023-02-22T09:48:49.603Z,13.73
2023-02-22T09:51:19.232Z,14.48
2023-02-22T09:53:49.719Z,13.07
2023-02-22T09:56:19.745Z,13.48
2023-02-22T09:58:49.630Z,13.38
2023-02-22T10:01:26.942Z,13.13
2023-02-22T10:04:02.438Z,13.35
2023-02-22T10:06:31.340Z,12.43
2023-02-22T10:09:07.526Z,13.27
2023-02-22T10:11:49.134Z,15.50
2023-02-22T10:14:44.225Z,12.23
2023-02-22T10:17:22.314Z,12.93
2023-02-22T10:20:06.148Z,12.38
2023-02-22T10:22:44.355Z,11.82
2023-02-22T10:25:17.812Z,12.32
2023-02-22T10:27:49.553Z,12.60
2023-02-22T10:30:24.904Z,13.10
2023-02-22T10:32:59.432Z,13.80
2023-02-22T10:35:30.866Z,11.85
2023-02-22T10:38:00.960Z,12.13
2023-02-22T10:40:32.939Z,12.45
2023-02-22T10:43:03.929Z,12.82
2023-02-22T10:45:33.423Z,12.35
2023-02-22T10:48:08.377Z,12.82
2023-02-22T10:50:40.259Z,13.68
2023-02-22T10:53:08.696Z,14.13
2023-02-22T10:55:37.636Z,13.57
2023-02-22T10:58:08.107Z,15.63
2023-02-22T11:00:38.169Z,14.13
2023-02-22T11:03:18.294Z,14.23
2023-02-22T11:05:47.778Z,14.82
2023-02-22T11:08:28.016Z,16.30
2023-02-22T11:10:57.460Z,13.63
2023-02-22T11:13:27.564Z,15.15
2023-02-22T11:15:56.138Z,14.35
2023-02-22T11:18:27.410Z,13.60
2023-02-22T11:21:05.570Z,14.57
2023-02-22T11:23:33.564Z,13.38
2023-02-22T11:26:09.904Z,14.73
2023-02-22T11:28:49.110Z,13.48
2023-02-22T11:31:20.081Z,14.23
2023-02-22T11:33:52.523Z,14.40
2023-02-22T11:36:37.283Z,14.20
2023-02-22T11:39:05.902Z,15.18
2023-02-22T11:41:35.088Z,14.45
2023-02-22T11:44:24.545Z,14.65
2023-02-22T11:46:55.615Z,13.73
2023-02-22T11:49:25.486Z,12.70
2023-02-22T11:52:06.631Z,13.18
2023-02-22T11:55:02.017Z,13.95
2023-02-22T11:57:47.507Z,13.68
2023-02-22T12:00:24.701Z,13.02
2023-02-22T12:03:20.433Z,13.40
2023-02-22T12:06:00.494Z,13.52
2023-02-22T12:08:38.117Z,14.32
2023-02-22T12:11:12.726Z,12.93
2023-02-22T12:13:55.673Z,14.55
2023-02-22T12:16:33.698Z,12.40
2023-02-22T12:19:12.038Z,13.65
2023-02-22T12:21:43.586Z,12.15
2023-02-22T12:24:18.541Z,11.95
2023-02-22T12:26:49.939Z,12.98
2023-02-22T12:29:26.289Z,11.48
2023-02-22T12:31:58.896Z,12.63
2023-02-22T12:34:32.544Z,11.55
2023-02-22T12:37:06.806Z,12.48
2023-02-22T12:39:52.638Z,12.20
2023-02-22T12:42:29.165Z,12.50
2023-02-22T12:45:01.733Z,12.40
2023-02-22T12:47:35.582Z,12.23
2023-02-22T12:50:08.098Z,10.88
2023-02-22T12:52:43.533Z,12.30
2023-02-22T12:55:18.103Z,10.90
2023-02-22T12:57:53.912Z,10.50
2023-02-22T13:00:26.384Z,11.50
2023-02-22T13:03:01.104Z,10.82
2023-02-22T13:05:33.624Z,9.77
2023-02-22T13:08:15.278Z,12.40
2023-02-22T13:10:58.676Z,11.88
2023-02-22T13:13:36.333Z,10.77
2023-02-22T13:16:14.615Z,11.13
2023-02-22T13:18:50.357Z,11.00
2023-02-22T13:21:25.479Z,11.40
2023-02-22T13:24:03.590Z,11.38
2023-02-22T13:26:39.920Z,9.10
2023-02-22T13:29:13.749Z,10.38
2023-02-22T13:31:56.617Z,9.52
2023-02-22T13:34:59.074Z,9.93
2023-02-22T13:37:41.153Z,10.25
2023-02-22T13:40:44.299Z,9.70
2023-02-22T13:43:37.812Z,9.18
2023-02-22T13:46:40.961Z,10.48
2023-02-22T13:49:24.125Z,9.15
2023-02-22T13:51:55.632Z,8.90
2023-02-22T13:54:31.171Z,9.90
2023-02-22T13:56:58.805Z,9.93
2023-02-22T13:59:30.966Z,9.23
2023-02-22T14:01:59.740Z,9.23
2023-02-22T14:04:45.374Z,9.07
2023-02-22T14:07:56.166Z,10.18
2023-02-22T14:10:56.070Z,10.23
2023-02-22T14:13:26.608Z,10.02
2023-02-22T14:16:22.304Z,10.25
2023-02-22T14:19:01.208Z,9.35
2023-02-22T14:21:29.267Z,10.25
2023-02-22T14:24:06.698Z,8.90
2023-02-22T14:26:36.190Z,9.45
2023-02-22T14:29:17.154Z,10.30
2023-02-22T14:32:03.150Z,9.57
2023-02-22T14:34:43.637Z,9.32
2023-02-22T14:37:17.273Z,10.73
2023-02-22T14:39:51.012Z,9.23
2023-02-22T14:42:22.588Z,9.77
2023-02-22T14:44:58.140Z,9.30
2023-02-22T14:47:30.472Z,9.15
2023-02-22T14:50:04.539Z,9.20
2023-02-22T14:52:35.977Z,8.63
2023-02-22T14:55:12.364Z,9.65
2023-02-22T14:57:53.543Z,10.30
2023-02-22T15:00:32.352Z,10.18
2023-02-22T15:03:01.985Z,9.30
2023-02-22T15:05:35.424Z,9.25
2023-02-22T15:08:06.121Z,9.70
2023-02-22T15:10:42.899Z,10.10
2023-02-22T15:13:18.569Z,8.68
2023-02-22T15:15:49.436Z,10.48
2023-02-22T15:18:24.037Z,9.77
2023-02-22T15:20:56.441Z,9.52
2023-02-22T15:23:30.649Z,10.07
2023-02-22T15:25:58.839Z,10.73
2023-02-22T15:28:30.873Z,10.93
2023-02-22T15:31:27.178Z,10.60
2023-02-22T15:33:56.102Z,10.10
2023-02-22T15:36:30.842Z,10.68
2023-02-22T15:38:58.527Z,10.65
2023-02-22T15:41:31.380Z,10.55
2023-02-22T15:44:05.445Z,9.75
2023-02-22T15:46:36.085Z,11.18
2023-02-22T15:49:20.801Z,11.02
2023-02-22T15:51:52.224Z,11.40
2023-02-22T15:54:27.211Z,11.02
2023-02-22T15:56:56.570Z,10.48
2023-02-22T15:59:30.294Z,10.35
2023-02-22T16:02:00.473Z,10.68
2023-02-22T16:04:31.663Z,10.18
2023-02-22T16:07:16.810Z,10.27
2023-02-22T16:09:49.463Z,10.48
2023-02-22T16:12:28.496Z,10.15
2023-02-22T16:14:57.169Z,10.90
2023-02-22T16:17:30.887Z,10.65
2023-02-22T16:20:01.329Z,10.23
2023-02-22T16:22:33.674Z,11.00
2023-02-22T16:25:24.990Z,11.25
2023-02-22T16:27:57.310Z,11.32
2023-02-22T16:30:28.840Z,11.50
2023-02-22T16:32:57.604Z,11.85
2023-02-22T16:35:29.659Z,11.18
2023-02-22T16:38:00.522Z,11.52
2023-02-22T16:40:33.647Z,12.30
2023-02-22T16:43:03.352Z,11.38
2023-02-22T16:45:30.998Z,11.65
2023-02-22T16:48:00.211Z,12.05
2023-02-22T16:50:29.150Z,10.75
2023-02-22T16:52:58.510Z,11.80
2023-02-22T16:55:26.624Z,11.88
2023-02-22T16:57:56.467Z,11.90
2023-02-22T17:00:31.341Z,11.63
2023-02-22T17:02:59.615Z,10.77
2023-02-22T17:05:28.596Z,11.30
2023-02-22T17:07:56.150Z,11.40
2023-02-22T17:10:23.811Z,11.07
2023-02-22T17:12:53.657Z,11.82
2023-02-22T17:15:23.601Z,11.95
2023-02-22T17:17:52.539Z,11.85
2023-02-22T17:20:29.881Z,12.07
2023-02-22T17:23:00.817Z,11.90
2023-02-22T17:25:31.824Z,12.45
2023-02-22T17:27:59.445Z,11.40
2023-02-22T17:30:27.952Z,13.27
2023-02-22T17:33:03.452Z,11.65
2023-02-22T17:35:35.070Z,11.70
2023-02-22T17:38:06.955Z,13.75
2023-02-22T17:40:36.250Z,12.52
2023-02-22T17:43:04.794Z,12.30
2023-02-22T17:45:32.685Z,14.18
2023-02-22T17:48:00.376Z,12.98
2023-02-22T17:50:28.228Z,11.93
2023-02-22T17:52:55.869Z,12.27
2023-02-22T17:55:24.751Z,11.48
2023-02-22T17:57:58.185Z,13.02
2023-02-22T18:00:32.977Z,12.02
2023-02-22T18:03:02.187Z,12.35
2023-02-22T18:05:31.025Z,11.23
2023-02-22T18:07:58.623Z,11.77
2023-02-22T18:10:28.301Z,11.80
2023-02-22T18:12:56.724Z,11.48
2023-02-22T18:15:28.151Z,11.95
2023-02-22T18:17:56.389Z,12.45
2023-02-22T18:20:30.962Z,11.88
2023-02-22T18:22:59.619Z,11.20
2023-02-22T18:25:28.580Z,11.30
2023-02-22T18:27:56.291Z,11.85
2023-02-22T18:30:24.206Z,12.48
2023-02-22T18:32:52.134Z,11.52
2023-02-22T18:35:19.832Z,11.25
2023-02-22T18:37:47.512Z,12.52
2023-02-22T18:40:18.850Z,10.73
2023-02-22T18:42:48.186Z,10.75
2023-02-22T18:45:21.158Z,11.50
2023-02-22T18:47:48.710Z,10.60
2023-02-22T18:50:17.292Z,11.23
2023-02-22T18:52:47.932Z,10.25
2023-02-22T18:55:17.317Z,9.82
2023-02-22T18:57:45.610Z,10.90
2023-02-22T19:00:16.610Z,10.75
2023-02-22T19:02:44.412Z,11.73
2023-02-22T19:05:12.884Z,11.52
2023-02-22T19:07:40.808Z,10.00
2023-02-22T19:10:08.801Z,10.40
2023-02-22T19:12:36.495Z,11.10
2023-02-22T19:15:04.266Z,10.63
2023-02-22T19:17:36.407Z,10.60
2023-02-22T19:20:06.728Z,10.25
2023-02-22T19:22:34.728Z,11.07
2023-02-22T19:25:04.199Z,10.15
2023-02-22T19:27:34.138Z,10.10
2023-02-22T19:30:03.729Z,11.35
2023-02-22T19:32:33.691Z,11.13
2023-02-22T19:35:06.559Z,11.10
2023-02-22T19:37:35.683Z,10.88
2023-02-22T19:40:09.507Z,10.65
2023-02-22T19:42:37.180Z,11.38
2023-02-22T19:45:04.874Z,10.60
2023-02-22T19:47:33.875Z,11.00
2023-02-22T19:50:01.670Z,11.77
2023-02-22T19:52:29.799Z,10.93
2023-02-22T19:54:57.339Z,12.55
2023-02-22T19:57:25.067Z,10.98
2023-02-22T19:59:52.745Z,10.95
2023-02-22T20:02:22.898Z,11.77
2023-02-22T20:04:51.824Z,11.48
2023-02-22T20:07:19.346Z,12.07
2023-02-22T20:09:46.986Z,11.52
2023-02-22T20:12:14.589Z,12.50
2023-02-22T20:14:42.380Z,12.02
2023-02-22T20:17:10.219Z,12.50
2023-02-22T20:19:40.227Z,12.70
2023-02-22T20:22:09.951Z,11.35
2023-02-22T20:24:37.706Z,12.13
2023-02-22T20:27:05.282Z,13.07
2023-02-22T20:29:32.864Z,13.40
2023-02-22T20:32:02.558Z,12.25
2023-02-22T20:34:32.455Z,11.98
2023-02-22T20:37:00.797Z,13.00
2023-02-22T20:39:29.837Z,12.65
2023-02-22T20:42:00.349Z,12.77
2023-02-22T20:44:28.023Z,11.52
2023-02-22T20:46:55.733Z,12.75
2023-02-22T20:49:23.294Z,12.68
2023-02-22T20:51:51.105Z,12.73
2023-02-22T20:54:18.969Z,12.07
2023-02-22T20:56:48.228Z,12.43
2023-02-22T20:59:17.587Z,12.90
2023-02-22T21:01:47.447Z,12.55
2023-02-22T21:04:15.282Z,12.13
2023-02-22T21:06:44.469Z,12.13
2023-02-22T21:09:14.791Z,12.23
2023-02-22T21:11:42.751Z,12.45
2023-02-22T21:14:18.198Z,12.60
2023-02-22T21:16:47.568Z,11.63
2023-02-22T21:19:27.729Z,11.20
2023-02-22T21:21:56.558Z,11.90
2023-02-22T21:24:25.118Z,12.23
2023-02-22T21:26:52.991Z,11.77
2023-02-22T21:29:22.303Z,12.63
2023-02-22T21:31:50.031Z,11.40
2023-02-22T21:34:22.232Z,12.38
2023-02-22T21:36:50.483Z,13.95
2023-02-22T21:39:21.755Z,12.10
2023-02-22T21:41:51.140Z,13.82
2023-02-22T21:44:19.417Z,11.75
2023-02-22T21:46:49.752Z,12.30
2023-02-22T21:49:18.271Z,11.95
2023-02-22T21:51:45.869Z,12.73
2023-02-22T21:54:13.804Z,13.18
2023-02-22T21:56:43.446Z,12.73
2023-02-22T21:59:14.513Z,13.57
2023-02-22T22:01:47.039Z,13.43
2023-02-22T22:04:19.644Z,13.85
2023-02-22T22:06:48.816Z,13.85
2023-02-22T22:09:19.680Z,13.32
2023-02-22T22:11:49.523Z,14.65
2023-02-22T22:14:17.897Z,13.45
2023-02-22T22:16:47.962Z,14.02
2023-02-22T22:19:17.692Z,12.45
2023-02-22T22:21:46.569Z,13.50
2023-02-22T22:24:14.317Z,14.40
2023-02-22T22:26:43.921Z,12.75
2023-02-22T22:29:11.575Z,13.98
2023-02-22T22:31:39.540Z,13.00
2023-02-22T22:34:07.279Z,13.88
2023-02-22T22:36:37.654Z,13.90
2023-02-22T22:39:12.894Z,15.07
2023-02-22T22:41:41.324Z,13.55
2023-02-22T22:44:09.816Z,13.13
2023-02-22T22:46:40.301Z,13.70
2023-02-22T22:49:09.298Z,13.48
2023-02-22T22:51:40.826Z,12.27
2023-02-22T22:54:09.594Z,13.98
2023-02-22T22:56:38.678Z,13.63
2023-02-22T22:59:09.491Z,14.07
2023-02-22T23:01:40.539Z,13.55
2023-02-22T23:04:10.925Z,14.00
2023-02-22T23:06:42.506Z,13.48
2023-02-22T23:09:14.201Z,14.48
2023-02-22T23:11:45.031Z,13.13
2023-02-22T23:14:14.038Z,13.18
2023-02-22T23:16:42.658Z,13.98
2023-02-22T23:19:10.301Z,13.55
2023-02-22T23:21:38.936Z,12.88
2023-02-22T23:24:08.254Z,14.23
2023-02-22T23:26:36.167Z,13.57
2023-02-22T23:29:04.425Z,13.27
2023-02-22T23:31:33.049Z,13.30
2023-02-22T23:34:06.601Z,13.45
2023-02-22T23:36:34.560Z,13.93
2023-02-22T23:39:02.169Z,14.55
2023-02-22T23:41:31.366Z,13.98
2023-02-22T23:43:59.959Z,13.02
2023-02-22T23:46:32.663Z,14.07
2023-02-22T23:49:02.822Z,13.85
2023-02-22T23:51:38.995Z,13.27
2023-02-22T23:54:07.598Z,13.32
2023-02-22T23:56:39.993Z,13.77
2023-02-22T23:59:11.220Z,14.23
